createdAt,value
2022-09-07T00:04:15.874Z,65.78
2022-09-07T00:09:36.624Z,65.71
2022-09-07T00:14:57.850Z,66.25
2022-09-07T00:20:18.588Z,65.91
2022-09-07T00:25:40.889Z,65.95
2022-09-07T00:31:02.002Z,66.27
2022-09-07T00:36:23.695Z,66.13
2022-09-07T00:41:44.557Z,66.15
2022-09-07T00:47:34.735Z,65.84
2022-09-07T00:53:21.808Z,66.11
2022-09-07T00:58:43.996Z,66.38
2022-09-07T01:04:04.975Z,66.52
2022-09-07T01:09:27.625Z,66.45
2022-09-07T01:14:51.989Z,66.45
2022-09-07T01:20:49.575Z,67.03
2022-09-07T01:26:41.540Z,66.73
2022-09-07T01:32:20.252Z,66.47
2022-09-07T01:38:02.922Z,66.52
2022-09-07T01:43:50.215Z,66.65
2022-09-07T01:49:15.459Z,66.67
2022-09-07T01:54:46.704Z,66.68
2022-09-07T02:00:11.032Z,66.64
2022-09-07T02:05:46.090Z,66.86
2022-09-07T02:11:28.843Z,66.79
2022-09-07T02:17:03.480Z,66.74
2022-09-07T02:22:30.104Z,66.83
2022-09-07T02:27:57.358Z,66.67
2022-09-07T02:33:18.494Z,66.50
2022-09-07T02:38:39.826Z,66.46
2022-09-07T02:44:02.373Z,66.18
2022-09-07T02:49:47.190Z,66.39
2022-09-07T02:55:24.865Z,66.31
2022-09-07T03:00:53.522Z,66.38
2022-09-07T03:06:29.495Z,66.21
2022-09-07T03:11:50.845Z,66.17
2022-09-07T03:17:13.321Z,66.84
2022-09-07T03:22:34.946Z,66.48
2022-09-07T03:27:55.583Z,66.33
2022-09-07T03:33:17.176Z,66.48
2022-09-07T03:38:37.910Z,66.61
2022-09-07T03:44:05.683Z,66.53
2022-09-07T03:49:26.405Z,66.62
2022-09-07T03:54:47.359Z,66.13
2022-09-07T04:00:08.934Z,66.28
2022-09-07T04:05:35.784Z,66.22
2022-09-07T04:10:58.167Z,66.09
2022-09-07T04:16:20.175Z,66.15
2022-09-07T04:21:41.061Z,66.05
2022-09-07T04:27:02.418Z,65.99
2022-09-07T04:32:23.452Z,66.00
2022-09-07T04:37:45.523Z,66.23
2022-09-07T04:43:08.212Z,65.87
2022-09-07T04:48:28.905Z,66.04
2022-09-07T04:53:51.158Z,66.07
2022-09-07T04:59:12.186Z,65.76
2022-09-07T05:04:36.301Z,66.00
2022-09-07T05:09:57.379Z,66.16
2022-09-07T05:15:18.223Z,68.20
2022-09-07T05:20:38.685Z,66.77
2022-09-07T05:25:59.224Z,66.71
2022-09-07T05:31:22.015Z,66.30
2022-09-07T05:36:42.526Z,67.00
2022-09-07T05:42:03.708Z,66.84
2022-09-07T05:47:24.586Z,66.64
2022-09-07T05:52:46.148Z,67.27
2022-09-07T05:58:06.605Z,66.96
2022-09-07T06:03:28.057Z,67.28
2022-09-07T06:08:53.268Z,66.93
2022-09-07T06:14:13.941Z,67.32
2022-09-07T06:19:34.652Z,67.19
2022-09-07T06:24:55.193Z,67.19
2022-09-07T06:30:16.016Z,67.51
2022-09-07T06:35:36.736Z,67.16
2022-09-07T06:52:22.556Z,66.86
2022-09-07T06:57:43.363Z,67.32
2022-09-07T07:03:04.333Z,67.11
2022-09-07T07:08:25.793Z,66.62
2022-09-07T07:13:46.505Z,66.83
2022-09-07T07:19:07.058Z,66.58
2022-09-07T07:24:27.741Z,66.37
2022-09-07T07:29:48.420Z,66.31
2022-09-07T07:35:10.125Z,65.90
2022-09-07T07:40:31.877Z,66.21
2022-09-07T07:45:55.712Z,66.41
2022-09-07T07:51:16.592Z,66.27
2022-09-07T07:56:37.106Z,66.23
2022-09-07T08:01:57.835Z,66.55
2022-09-07T08:07:19.429Z,66.20
2022-09-07T08:12:40.151Z,66.61
2022-09-07T08:18:01.162Z,66.60
2022-09-07T08:23:21.876Z,67.06
2022-09-07T08:28:45.463Z,66.68
2022-09-07T08:34:07.719Z,66.57
2022-09-07T08:39:28.398Z,66.18
2022-09-07T08:45:06.814Z,66.56
2022-09-07T08:50:33.817Z,66.37
2022-09-07T08:55:58.439Z,66.32
2022-09-07T09:01:31.043Z,67.14
2022-09-07T09:07:22.845Z,66.35
2022-09-07T09:12:57.830Z,66.75
2022-09-07T09:18:36.673Z,66.22
2022-09-07T09:24:02.415Z,66.52
2022-09-07T09:29:24.030Z,66.12
2022-09-07T09:35:01.507Z,65.97
2022-09-07T09:40:31.290Z,66.20
2022-09-07T09:46:12.437Z,65.92
2022-09-07T10:09:20.352Z,65.62
2022-09-07T10:14:46.773Z,65.39
2022-09-07T10:20:15.772Z,65.28
2022-09-07T10:25:37.983Z,65.66
2022-09-07T10:31:17.708Z,65.63
2022-09-07T10:36:47.376Z,65.48
2022-09-07T10:42:29.009Z,65.53
2022-09-07T10:48:19.398Z,65.26
2022-09-07T11:00:08.763Z,64.54
2022-09-07T11:05:38.724Z,64.80
2022-09-07T11:11:11.746Z,65.24
2022-09-07T11:16:54.707Z,65.47
2022-09-07T11:22:32.738Z,65.48
2022-09-07T11:27:58.679Z,65.49
2022-09-07T11:33:23.251Z,65.33
2022-09-07T11:38:44.396Z,65.49
2022-09-07T11:44:18.867Z,65.58
2022-09-07T11:49:39.458Z,65.61
2022-09-07T11:55:06.045Z,65.21
2022-09-07T12:00:55.546Z,64.83
2022-09-07T12:06:22.598Z,64.74
2022-09-07T12:12:09.514Z,64.82
2022-09-07T12:17:51.271Z,65.12
2022-09-07T12:23:15.325Z,65.03
2022-09-07T12:28:36.447Z,64.70
2022-09-07T12:34:31.494Z,64.62
2022-09-07T12:40:27.235Z,64.55
2022-09-07T12:45:51.886Z,64.90
2022-09-07T12:57:32.673Z,64.46
2022-09-07T13:09:36.803Z,64.72
2022-09-07T13:15:00.654Z,64.23
2022-09-07T13:20:30.138Z,64.14
2022-09-07T13:25:54.299Z,64.33
2022-09-07T13:31:43.798Z,63.60
2022-09-07T13:37:06.583Z,63.64
2022-09-07T13:42:33.602Z,63.97
2022-09-07T13:48:20.570Z,64.03
2022-09-07T13:54:01.672Z,63.67
2022-09-07T13:59:23.834Z,63.98
2022-09-07T14:04:51.327Z,63.87
2022-09-07T14:10:19.609Z,63.64
2022-09-07T14:15:50.943Z,63.52
2022-09-07T14:21:19.019Z,63.71
2022-09-07T14:26:46.865Z,63.69
2022-09-07T14:32:14.978Z,63.87
2022-09-07T14:37:36.848Z,63.99
2022-09-07T14:42:58.561Z,64.13
2022-09-07T14:48:29.230Z,64.26
2022-09-07T14:54:02.447Z,64.70
2022-09-07T14:59:33.621Z,64.42
2022-09-07T15:05:17.906Z,63.67
2022-09-07T15:10:41.300Z,63.57
2022-09-07T15:16:05.575Z,63.48
2022-09-07T15:21:29.858Z,63.52
2022-09-07T15:27:09.280Z,63.12
2022-09-07T15:32:29.819Z,63.12
2022-09-07T15:38:58.917Z,62.80
2022-09-07T15:43:31.393Z,62.58
2022-09-07T15:48:55.384Z,62.63
2022-09-07T15:54:16.772Z,62.35
2022-09-07T15:59:37.912Z,62.66
2022-09-07T16:04:58.969Z,62.21
2022-09-07T16:10:20.530Z,62.57
2022-09-07T16:15:46.189Z,62.63
2022-09-07T16:21:12.643Z,62.66
2022-09-07T16:26:33.683Z,62.90
2022-09-07T16:37:36.015Z,63.60
2022-09-07T16:42:57.278Z,63.49
2022-09-07T16:48:18.010Z,63.11
2022-09-07T16:53:39.719Z,63.03
2022-09-07T16:59:03.180Z,63.33
2022-09-07T17:04:24.512Z,63.21
2022-09-07T17:09:46.298Z,63.38
2022-09-07T17:15:08.406Z,63.64
2022-09-07T17:20:29.322Z,63.90
2022-09-07T17:25:49.995Z,63.76
2022-09-07T17:37:01.188Z,63.62
2022-09-07T17:42:24.600Z,63.70
2022-09-07T17:47:45.617Z,63.74
2022-09-07T17:53:06.309Z,63.75
2022-09-07T17:58:27.232Z,63.86
2022-09-07T18:03:48.127Z,63.89
2022-09-07T18:09:08.862Z,64.14
2022-09-07T18:14:30.211Z,64.01
2022-09-07T18:19:51.174Z,63.87
2022-09-07T18:25:11.885Z,64.03
2022-09-07T18:30:39.851Z,63.99
2022-09-07T18:36:01.459Z,64.28
2022-09-07T18:41:22.156Z,64.30
2022-09-07T18:46:42.844Z,64.14
2022-09-07T18:57:45.101Z,64.46
2022-09-07T19:03:05.900Z,64.26
2022-09-07T19:08:29.922Z,64.89
2022-09-07T19:14:04.133Z,64.74
2022-09-07T19:19:26.585Z,64.65
2022-09-07T19:24:47.202Z,64.55
2022-09-07T19:30:08.547Z,64.65
2022-09-07T19:35:30.142Z,65.00
2022-09-07T19:40:58.584Z,65.18
2022-09-07T19:46:24.668Z,64.60
2022-09-07T19:51:46.080Z,64.83
2022-09-07T19:57:06.864Z,64.66
2022-09-07T20:02:27.957Z,64.93
2022-09-07T20:07:49.817Z,65.01
2022-09-07T20:13:10.605Z,65.00
2022-09-07T20:18:31.357Z,64.88
2022-09-07T20:23:52.532Z,64.78
2022-09-07T20:29:27.406Z,64.38
2022-09-07T20:34:50.597Z,64.56
2022-09-07T20:40:11.421Z,64.56
2022-09-07T20:45:35.247Z,64.60
2022-09-07T20:51:00.785Z,65.00
2022-09-07T20:56:24.560Z,64.86
2022-09-07T21:01:46.744Z,64.87
2022-09-07T21:07:07.284Z,64.54
2022-09-07T21:12:27.881Z,64.70
2022-09-07T21:17:48.495Z,64.57
2022-09-07T21:23:10.143Z,64.40
2022-09-07T21:28:31.264Z,64.66
2022-09-07T21:33:56.966Z,64.68
2022-09-07T21:39:18.765Z,64.60
2022-09-07T21:44:39.130Z,64.68
2022-09-07T21:49:59.733Z,64.78
2022-09-07T21:55:20.402Z,64.83
2022-09-07T22:00:41.026Z,65.05
2022-09-07T22:06:02.987Z,65.00
2022-09-07T22:11:25.729Z,65.13
2022-09-07T22:16:46.429Z,65.12
2022-09-07T22:22:07.262Z,64.86
2022-09-07T22:27:27.947Z,64.95
2022-09-07T22:32:52.270Z,64.85
2022-09-07T22:38:13.107Z,65.16
2022-09-07T22:43:34.517Z,65.05
2022-09-07T22:48:57.343Z,65.05
2022-09-07T22:54:18.294Z,65.20
2022-09-07T22:59:38.874Z,65.42
2022-09-07T23:04:59.504Z,65.75
2022-09-07T23:10:20.009Z,65.92
2022-09-07T23:15:40.661Z,65.55
2022-09-07T23:21:02.253Z,65.58
2022-09-07T23:26:25.124Z,65.54
2022-09-07T23:31:46.619Z,65.45
2022-09-07T23:37:07.356Z,65.59
2022-09-07T23:42:27.855Z,65.46
2022-09-07T23:47:48.446Z,65.66
2022-09-07T23:53:09.429Z,65.67
2022-09-07T23:58:30.374Z,65.80
